createdAt,value
2023-04-18T00:00:39.541Z,19.20
2023-04-18T00:01:39.605Z,19.20
2023-04-18T00:02:39.723Z,19.23
2023-04-18T00:03:39.853Z,19.23
2023-04-18T00:04:39.663Z,19.21
2023-04-18T00:05:39.634Z,19.21
2023-04-18T00:06:39.745Z,19.21
2023-04-18T00:07:39.658Z,19.23
2023-04-18T00:08:39.670Z,19.20
2023-04-18T00:09:39.724Z,19.17
2023-04-18T00:10:39.701Z,19.23
2023-04-18T00:11:39.707Z,19.23
2023-04-18T00:12:39.722Z,19.23
2023-04-18T00:13:39.746Z,19.23
2023-04-18T00:14:39.773Z,19.21
2023-04-18T00:15:39.779Z,19.21
2023-04-18T00:16:39.893Z,19.23
2023-04-18T00:17:40.000Z,19.23
2023-04-18T00:18:39.817Z,19.23
2023-04-18T00:19:39.829Z,19.20
2023-04-18T00:20:39.825Z,19.24
2023-04-18T00:21:39.856Z,19.23
2023-04-18T00:22:39.893Z,19.23
2023-04-18T00:23:39.895Z,19.25
2023-04-18T00:24:39.919Z,19.24
2023-04-18T00:25:39.939Z,19.24
2023-04-18T00:26:39.965Z,19.25
2023-04-18T00:27:39.988Z,19.24
2023-04-18T00:28:40.049Z,19.24
2023-04-18T00:29:40.052Z,19.23
2023-04-18T00:30:40.118Z,19.23
2023-04-18T00:31:40.059Z,19.23
2023-04-18T00:32:40.160Z,19.24
2023-04-18T00:33:40.110Z,19.24
2023-04-18T00:34:40.151Z,19.23
2023-04-18T00:35:40.169Z,19.24
2023-04-18T00:36:40.185Z,19.24
2023-04-18T00:37:40.211Z,19.23
2023-04-18T00:38:40.251Z,19.20
2023-04-18T00:39:40.219Z,19.21
2023-04-18T00:40:40.231Z,19.17
2023-04-18T00:41:40.238Z,19.17
2023-04-18T00:42:40.273Z,19.17
2023-04-18T00:43:40.277Z,19.17
2023-04-18T00:44:40.304Z,19.23
2023-04-18T00:45:40.327Z,19.21
2023-04-18T00:46:40.385Z,19.24
2023-04-18T00:47:40.435Z,19.25
2023-04-18T00:48:40.373Z,19.24
2023-04-18T00:49:40.393Z,19.24
2023-04-18T00:50:40.410Z,19.25
2023-04-18T00:51:40.436Z,19.25
2023-04-18T00:52:40.457Z,19.25
2023-04-18T00:53:40.479Z,19.25
2023-04-18T00:54:40.514Z,19.24
2023-04-18T00:55:40.491Z,19.27
2023-04-18T00:56:40.496Z,19.25
2023-04-18T00:57:40.536Z,19.25
2023-04-18T00:58:40.573Z,19.23
2023-04-18T00:59:40.583Z,19.23
2023-04-18T01:00:40.561Z,19.25
2023-04-18T01:01:40.848Z,19.24
2023-04-18T01:02:40.846Z,19.25
2023-04-18T01:03:40.778Z,19.24
2023-04-18T01:04:40.744Z,19.21
2023-04-18T01:05:40.647Z,19.23
2023-04-18T01:06:40.627Z,19.23
2023-04-18T01:07:40.661Z,19.23
2023-04-18T01:08:40.674Z,19.21
2023-04-18T01:09:40.699Z,19.20
2023-04-18T01:10:40.870Z,19.20
2023-04-18T01:11:40.721Z,19.23
2023-04-18T01:12:40.755Z,19.23
2023-04-18T01:13:40.743Z,19.23
2023-04-18T01:14:40.755Z,19.24
2023-04-18T01:15:40.863Z,19.24
2023-04-18T01:16:40.760Z,19.21
2023-04-18T01:17:40.823Z,19.21
2023-04-18T01:18:40.823Z,19.23
2023-04-18T01:19:40.787Z,19.24
2023-04-18T01:20:40.816Z,19.24
2023-04-18T01:21:40.844Z,19.25
2023-04-18T01:22:40.886Z,19.24
2023-04-18T01:23:40.873Z,19.24
2023-04-18T01:24:40.848Z,19.24
2023-04-18T01:25:40.857Z,19.20
2023-04-18T01:26:40.878Z,19.23
2023-04-18T01:27:40.844Z,19.20
2023-04-18T01:28:40.868Z,19.16
2023-04-18T01:29:40.895Z,19.17
2023-04-18T01:30:40.924Z,19.16
2023-04-18T01:31:41.007Z,19.21
2023-04-18T01:32:41.016Z,19.20
2023-04-18T01:33:40.986Z,19.16
2023-04-18T01:34:41.217Z,19.20
2023-04-18T01:35:41.032Z,19.16
2023-04-18T01:36:41.061Z,19.16
2023-04-18T01:37:41.083Z,19.17
2023-04-18T01:38:41.099Z,19.20
2023-04-18T01:39:41.123Z,19.17
2023-04-18T01:40:41.130Z,19.17
2023-04-18T01:41:41.158Z,19.15
2023-04-18T01:42:41.210Z,19.17
2023-04-18T01:43:41.214Z,19.16
2023-04-18T01:44:41.233Z,19.16
2023-04-18T01:45:41.268Z,19.15
2023-04-18T01:46:41.352Z,19.16
2023-04-18T01:47:41.327Z,19.16
2023-04-18T01:48:41.303Z,19.16
2023-04-18T01:49:41.325Z,19.16
2023-04-18T01:50:41.358Z,19.15
2023-04-18T01:51:41.365Z,19.16
2023-04-18T01:52:41.393Z,19.15
2023-04-18T01:53:41.415Z,19.15
2023-04-18T01:54:41.438Z,19.13
2023-04-18T01:55:41.478Z,19.16
2023-04-18T01:56:41.487Z,19.13
2023-04-18T01:57:41.537Z,19.16
2023-04-18T01:58:41.551Z,19.12
2023-04-18T01:59:41.498Z,19.15
2023-04-18T02:00:41.577Z,19.13
2023-04-18T02:01:41.549Z,19.13
2023-04-18T02:02:41.755Z,19.12
2023-04-18T02:03:41.683Z,19.12
2023-04-18T02:04:41.557Z,19.15
2023-04-18T02:05:41.566Z,19.15
2023-04-18T02:06:41.619Z,19.16
2023-04-18T02:07:41.585Z,19.12
2023-04-18T02:08:41.607Z,19.12
2023-04-18T02:09:41.631Z,19.13
2023-04-18T02:10:41.647Z,19.12
2023-04-18T02:11:41.680Z,19.10
2023-04-18T02:12:41.704Z,19.10
2023-04-18T02:13:41.737Z,19.12
2023-04-18T02:14:41.773Z,19.12
2023-04-18T02:15:41.792Z,19.10
2023-04-18T02:16:41.876Z,19.10
2023-04-18T02:17:42.296Z,19.10
2023-04-18T02:18:41.822Z,19.09
2023-04-18T02:19:41.836Z,19.10
2023-04-18T02:20:41.876Z,19.12
2023-04-18T02:21:41.890Z,19.13
2023-04-18T02:22:41.922Z,19.15
2023-04-18T02:23:41.934Z,19.09
2023-04-18T02:24:41.965Z,19.09
2023-04-18T02:25:42.031Z,19.12
2023-04-18T02:26:41.961Z,19.16
2023-04-18T02:27:41.981Z,19.13
2023-04-18T02:28:41.996Z,19.13
2023-04-18T02:29:42.023Z,19.13
2023-04-18T02:30:42.101Z,19.12
2023-04-18T02:31:42.107Z,19.12
2023-04-18T02:32:42.124Z,19.10
2023-04-18T02:33:42.102Z,19.12
2023-04-18T02:34:42.110Z,19.12
2023-04-18T02:35:42.134Z,19.13
2023-04-18T02:36:42.159Z,19.13
2023-04-18T02:37:42.169Z,19.13
2023-04-18T02:38:42.218Z,19.15
2023-04-18T02:39:42.228Z,19.12
2023-04-18T02:40:42.239Z,19.12
2023-04-18T02:41:42.265Z,19.10
2023-04-18T02:42:42.285Z,19.10
2023-04-18T02:43:42.335Z,19.13
2023-04-18T02:44:42.355Z,19.15
2023-04-18T02:45:42.580Z,19.15
2023-04-18T02:46:42.347Z,19.16
2023-04-18T02:47:53.770Z,19.16
2023-04-18T02:48:42.360Z,19.13
2023-04-18T02:49:42.367Z,19.15
2023-04-18T02:50:42.382Z,19.17
2023-04-18T02:51:42.401Z,19.16
2023-04-18T02:52:42.429Z,19.15
2023-04-18T02:53:42.449Z,19.17
2023-04-18T02:54:42.426Z,19.16
2023-04-18T02:55:42.449Z,19.16
2023-04-18T02:56:42.474Z,19.16
2023-04-18T02:57:42.493Z,19.17
2023-04-18T02:58:42.504Z,19.20
2023-04-18T02:59:42.523Z,19.15
2023-04-18T03:00:42.549Z,19.16
2023-04-18T03:01:42.650Z,19.16
2023-04-18T03:02:42.650Z,19.13
2023-04-18T03:03:42.605Z,19.13
2023-04-18T03:04:42.664Z,19.15
2023-04-18T03:05:42.633Z,19.15
2023-04-18T03:06:42.661Z,19.12
2023-04-18T03:07:42.681Z,19.15
2023-04-18T03:08:42.695Z,19.16
2023-04-18T03:09:42.711Z,19.15
2023-04-18T03:10:42.751Z,19.17
2023-04-18T03:11:42.724Z,19.17
2023-04-18T03:12:42.756Z,19.13
2023-04-18T03:13:42.774Z,19.10
2023-04-18T03:14:42.787Z,19.12
2023-04-18T03:15:42.851Z,19.12
2023-04-18T03:16:42.817Z,19.10
2023-04-18T03:17:42.887Z,19.12
2023-04-18T03:18:42.874Z,19.13
2023-04-18T03:19:42.876Z,19.10
2023-04-18T03:20:42.907Z,19.13
2023-04-18T03:21:42.913Z,19.13
2023-04-18T03:22:42.918Z,19.12
2023-04-18T03:23:42.936Z,19.12
2023-04-18T03:24:42.966Z,19.09
2023-04-18T03:25:42.991Z,19.10
2023-04-18T03:26:43.019Z,19.13
2023-04-18T03:27:43.023Z,19.16
2023-04-18T03:28:43.038Z,19.16
2023-04-18T03:29:43.086Z,19.16
2023-04-18T03:30:43.051Z,19.16
2023-04-18T03:31:43.208Z,19.17
2023-04-18T03:32:43.121Z,19.16
2023-04-18T03:33:43.088Z,19.13
2023-04-18T03:34:43.124Z,19.10
2023-04-18T03:35:43.109Z,19.12
2023-04-18T03:36:43.124Z,19.13
2023-04-18T03:37:43.156Z,19.16
2023-04-18T03:38:43.182Z,19.15
2023-04-18T03:39:43.204Z,19.15
2023-04-18T03:40:43.224Z,19.16
2023-04-18T03:41:43.252Z,19.16
2023-04-18T03:42:43.268Z,19.20
2023-04-18T03:43:43.294Z,19.17
2023-04-18T03:44:43.315Z,19.16
2023-04-18T03:45:43.347Z,19.15
2023-04-18T03:46:43.391Z,19.20
2023-04-18T03:47:43.394Z,19.23
2023-04-18T03:48:43.360Z,19.21
2023-04-18T03:49:43.385Z,19.20
2023-04-18T03:50:43.450Z,19.21
2023-04-18T03:51:43.411Z,19.17
2023-04-18T03:52:43.439Z,19.20
2023-04-18T03:53:43.459Z,19.20
2023-04-18T03:54:43.487Z,19.20
2023-04-18T03:55:43.504Z,19.21
2023-04-18T03:56:43.492Z,19.17
2023-04-18T03:57:43.489Z,19.17
2023-04-18T03:58:43.515Z,19.17
2023-04-18T03:59:44.152Z,19.20
2023-04-18T04:00:43.568Z,19.23
2023-04-18T04:01:43.621Z,19.21
2023-04-18T04:03:43.740Z,19.23
2023-04-18T04:04:43.613Z,19.23
2023-04-18T04:05:43.605Z,19.21
2023-04-18T04:06:43.650Z,19.21
2023-04-18T04:07:43.607Z,19.24
2023-04-18T04:08:43.647Z,19.21
2023-04-18T04:09:43.653Z,19.25
2023-04-18T04:10:43.655Z,19.25
2023-04-18T04:11:43.682Z,19.23
2023-04-18T04:12:43.702Z,19.24
2023-04-18T04:13:43.923Z,19.25
2023-04-18T04:14:43.723Z,19.24
2023-04-18T04:15:43.736Z,19.25
2023-04-18T04:16:43.795Z,19.24
2023-04-18T04:17:43.814Z,19.24
2023-04-18T04:18:43.815Z,19.24
2023-04-18T04:19:43.783Z,19.25
2023-04-18T04:20:43.811Z,19.24
2023-04-18T04:21:43.839Z,19.24
2023-04-18T04:22:43.873Z,19.27
2023-04-18T04:23:43.832Z,19.25
2023-04-18T04:24:43.853Z,19.28
2023-04-18T04:25:43.873Z,19.27
2023-04-18T04:26:43.891Z,19.27
2023-04-18T04:27:43.909Z,19.24
2023-04-18T04:28:43.913Z,19.25
2023-04-18T04:29:43.954Z,19.25
2023-04-18T04:30:43.966Z,19.23
2023-04-18T04:31:44.042Z,19.24
2023-04-18T04:32:44.094Z,19.27
2023-04-18T04:33:44.008Z,19.25
2023-04-18T04:34:44.017Z,19.27
2023-04-18T04:35:44.039Z,19.24
2023-04-18T04:36:44.054Z,19.25
2023-04-18T04:37:44.035Z,19.27
2023-04-18T04:38:44.078Z,19.23
2023-04-18T04:39:44.084Z,19.21
2023-04-18T04:40:44.107Z,19.20
2023-04-18T04:41:44.121Z,19.15
2023-04-18T04:42:44.176Z,19.12
2023-04-18T04:43:44.145Z,19.10
2023-04-18T04:44:44.235Z,19.09
2023-04-18T04:45:44.180Z,19.09
2023-04-18T04:46:44.208Z,19.07
2023-04-18T04:47:44.292Z,19.05
2023-04-18T04:48:44.243Z,19.07
2023-04-18T04:49:44.269Z,19.09
2023-04-18T04:50:44.305Z,19.12
2023-04-18T04:51:44.320Z,19.16
2023-04-18T04:52:44.345Z,19.16
2023-04-18T04:53:44.350Z,19.17
2023-04-18T04:54:44.358Z,19.20
2023-04-18T04:55:44.369Z,19.20
2023-04-18T04:56:44.399Z,19.21
2023-04-18T04:57:44.426Z,19.21
2023-04-18T04:58:44.445Z,19.21
2023-04-18T04:59:44.466Z,19.21
2023-04-18T05:02:10.544Z,19.24
2023-04-18T05:03:10.634Z,19.25
2023-04-18T05:04:10.524Z,19.24
2023-04-18T05:05:10.452Z,19.27
2023-04-18T05:06:10.469Z,19.25
2023-04-18T05:07:10.506Z,19.28
2023-04-18T05:08:10.517Z,19.30
2023-04-18T05:09:10.524Z,19.30
2023-04-18T05:10:10.560Z,19.31
2023-04-18T05:11:10.567Z,19.30
2023-04-18T05:12:10.589Z,19.31
2023-04-18T05:13:10.614Z,19.31
2023-04-18T05:14:10.621Z,19.31
2023-04-18T05:15:10.664Z,19.32
2023-04-18T05:16:10.711Z,19.32
2023-04-18T05:17:10.703Z,19.30
2023-04-18T05:18:10.725Z,19.24
2023-04-18T05:19:10.748Z,19.13
2023-04-18T05:20:10.767Z,19.02
2023-04-18T05:21:10.778Z,18.94
2023-04-18T05:22:10.764Z,18.86
2023-04-18T05:23:10.781Z,18.78
2023-04-18T05:24:10.796Z,18.72
2023-04-18T05:25:10.815Z,18.66
2023-04-18T05:26:10.887Z,18.64
2023-04-18T05:27:10.823Z,18.60
2023-04-18T05:28:10.843Z,18.56
2023-04-18T05:29:10.873Z,18.56
2023-04-18T05:30:10.880Z,18.60
2023-04-18T05:31:10.952Z,18.64
2023-04-18T05:32:10.914Z,18.64
2023-04-18T05:33:10.938Z,18.66
2023-04-18T05:34:10.981Z,18.72
2023-04-18T05:35:10.954Z,18.76
2023-04-18T05:36:11.026Z,18.78
2023-04-18T05:37:10.994Z,18.79
2023-04-18T05:38:11.018Z,18.83
2023-04-18T05:39:11.035Z,18.83
2023-04-18T05:40:11.051Z,18.84
2023-04-18T05:41:11.084Z,18.84
2023-04-18T05:42:11.212Z,18.87
2023-04-18T05:43:11.096Z,18.91
2023-04-18T05:44:11.113Z,18.96
2023-04-18T05:45:11.122Z,18.96
2023-04-18T05:46:11.157Z,18.97
2023-04-18T05:47:11.156Z,18.94
2023-04-18T05:48:11.239Z,18.97
2023-04-18T05:49:11.174Z,18.99
2023-04-18T05:50:11.186Z,18.96
2023-04-18T05:51:11.740Z,19.01
2023-04-18T05:52:11.222Z,18.93
2023-04-18T05:53:11.242Z,18.84
2023-04-18T05:54:11.330Z,18.79
2023-04-18T05:55:11.264Z,18.79
2023-04-18T05:56:11.291Z,18.83
2023-04-18T05:57:11.340Z,18.93
2023-04-18T05:58:11.336Z,18.99
2023-04-18T05:59:11.297Z,19.02
2023-04-18T06:00:11.311Z,19.06
2023-04-18T06:01:11.341Z,19.15
2023-04-18T06:02:11.488Z,19.21
2023-04-18T06:03:11.792Z,19.30
2023-04-18T06:04:11.827Z,19.34
2023-04-18T06:05:11.686Z,19.35
2023-04-18T06:06:11.413Z,19.43
2023-04-18T06:07:11.457Z,19.46
2023-04-18T06:08:11.438Z,19.52
2023-04-18T06:09:11.473Z,19.52
2023-04-18T06:10:11.482Z,19.49
2023-04-18T06:11:11.517Z,19.47
2023-04-18T06:12:11.549Z,19.50
2023-04-18T06:13:11.574Z,19.52
2023-04-18T06:14:12.069Z,19.57
2023-04-18T06:15:11.576Z,19.57
2023-04-18T06:16:11.653Z,19.64
2023-04-18T06:17:11.591Z,19.68
2023-04-18T06:18:11.600Z,19.75
2023-04-18T06:19:11.644Z,19.80
2023-04-18T06:20:11.654Z,19.75
2023-04-18T06:21:11.690Z,19.75
2023-04-18T06:22:11.714Z,19.75
2023-04-18T06:23:11.750Z,19.80
2023-04-18T06:24:11.771Z,19.80
2023-04-18T06:25:11.771Z,19.83
2023-04-18T06:26:11.798Z,19.85
2023-04-18T06:27:24.175Z,19.83
2023-04-18T06:28:11.816Z,19.86
2023-04-18T06:29:11.841Z,19.87
2023-04-18T06:30:11.871Z,19.90
2023-04-18T06:31:11.903Z,19.97
2023-04-18T06:32:11.881Z,20.02
2023-04-18T06:33:11.909Z,20.08
2023-04-18T06:34:12.208Z,20.12
2023-04-18T06:35:11.968Z,20.08
2023-04-18T06:36:11.993Z,20.07
2023-04-18T06:37:12.012Z,20.07
2023-04-18T06:38:12.023Z,20.04
2023-04-18T06:39:12.069Z,20.07
2023-04-18T06:40:12.039Z,20.05
2023-04-18T06:41:12.079Z,20.04
2023-04-18T06:42:12.085Z,20.07
2023-04-18T06:43:12.116Z,20.07
2023-04-18T06:44:12.150Z,20.10
2023-04-18T06:45:12.113Z,20.08
2023-04-18T06:46:12.189Z,20.05
2023-04-18T06:47:12.145Z,20.07
2023-04-18T06:48:12.188Z,20.08
2023-04-18T06:49:12.166Z,20.07
2023-04-18T06:50:12.179Z,20.13
2023-04-18T06:51:12.193Z,20.15
2023-04-18T06:52:12.222Z,20.16
2023-04-18T06:53:12.232Z,20.17
2023-04-18T06:54:12.360Z,20.17
2023-04-18T06:55:12.269Z,20.17
2023-04-18T06:56:12.319Z,20.20
2023-04-18T06:57:12.345Z,20.19
2023-04-18T06:58:12.361Z,20.20
2023-04-18T06:59:12.620Z,20.22
2023-04-18T07:00:12.410Z,20.22
2023-04-18T07:01:12.514Z,20.23
2023-04-18T07:02:12.679Z,20.27
2023-04-18T07:03:12.783Z,20.31
2023-04-18T07:04:12.913Z,20.34
2023-04-18T07:05:12.473Z,20.37
2023-04-18T07:06:12.488Z,20.40
2023-04-18T07:07:12.517Z,20.40
2023-04-18T07:08:12.522Z,20.44
2023-04-18T07:09:12.544Z,20.48
2023-04-18T07:10:12.556Z,20.51
2023-04-18T07:11:12.573Z,20.56
2023-04-18T07:12:12.605Z,20.57
2023-04-18T07:13:12.620Z,20.57
2023-04-18T07:14:13.033Z,20.58
2023-04-18T07:15:12.630Z,20.58
2023-04-18T07:16:12.664Z,20.56
2023-04-18T07:17:12.708Z,20.54
2023-04-18T07:18:16.137Z,20.54
2023-04-18T07:19:12.645Z,20.51
2023-04-18T07:20:14.218Z,20.51
2023-04-18T07:21:12.680Z,20.57
2023-04-18T07:22:12.709Z,20.58
2023-04-18T07:23:12.719Z,20.61
2023-04-18T07:24:13.305Z,20.66
2023-04-18T07:25:12.760Z,20.69
2023-04-18T07:26:12.786Z,20.72
2023-04-18T07:27:12.810Z,20.75
2023-04-18T07:28:12.796Z,20.81
2023-04-18T07:29:12.825Z,20.87
2023-04-18T07:30:12.852Z,20.93
2023-04-18T07:31:12.894Z,20.96
2023-04-18T07:32:12.885Z,21.01
2023-04-18T07:33:12.904Z,21.05
2023-04-18T07:34:13.221Z,21.08
2023-04-18T07:35:12.926Z,21.11
2023-04-18T07:36:12.935Z,21.11
2023-04-18T07:37:14.638Z,21.12
2023-04-18T07:38:12.961Z,21.12
2023-04-18T07:39:12.966Z,21.13
2023-04-18T07:40:12.983Z,21.15
2023-04-18T07:41:13.016Z,21.16
2023-04-18T07:42:13.035Z,21.15
2023-04-18T07:43:13.026Z,21.13
2023-04-18T07:44:13.260Z,21.16
2023-04-18T07:45:13.026Z,21.22
2023-04-18T07:46:13.152Z,21.24
2023-04-18T07:47:13.082Z,21.26
2023-04-18T07:48:13.220Z,21.28
2023-04-18T07:49:13.432Z,21.26
2023-04-18T07:50:13.952Z,21.27
2023-04-18T07:51:13.146Z,21.26
2023-04-18T07:52:13.174Z,21.22
2023-04-18T07:53:13.182Z,21.19
2023-04-18T07:54:13.211Z,21.19
2023-04-18T07:55:13.250Z,21.19
2023-04-18T07:56:13.270Z,21.22
2023-04-18T07:57:13.260Z,21.22
2023-04-18T07:58:13.281Z,21.26
2023-04-18T07:59:13.649Z,21.27
2023-04-18T08:00:13.299Z,21.27
2023-04-18T08:01:13.303Z,21.24
2023-04-18T08:02:13.316Z,21.26
2023-04-18T08:03:13.768Z,21.30
2023-04-18T08:04:13.477Z,21.31
2023-04-18T08:05:13.405Z,21.34
2023-04-18T08:06:13.349Z,21.36
2023-04-18T08:07:13.325Z,21.37
2023-04-18T08:08:13.355Z,21.38
2023-04-18T08:09:13.727Z,21.36
2023-04-18T08:10:13.369Z,21.34
2023-04-18T08:11:13.410Z,21.31
2023-04-18T08:12:13.428Z,21.30
2023-04-18T08:13:13.451Z,21.22
2023-04-18T08:15:39.370Z,21.22
2023-04-18T08:20:57.119Z,21.34
2023-04-18T08:21:57.221Z,21.36
2023-04-18T08:23:07.414Z,21.37
2023-04-18T08:23:57.145Z,21.45
2023-04-18T08:25:04.194Z,21.48
2023-04-18T08:25:57.173Z,21.51
2023-04-18T08:26:57.173Z,21.52
2023-04-18T08:27:57.202Z,21.58
2023-04-18T08:28:57.243Z,21.59
2023-04-18T08:29:57.237Z,21.70
2023-04-18T08:30:57.266Z,21.77
2023-04-18T08:31:57.286Z,21.83
2023-04-18T08:32:57.342Z,21.81
2023-04-18T08:33:57.299Z,21.75
2023-04-18T08:34:57.323Z,21.71
2023-04-18T08:35:57.339Z,21.70
2023-04-18T08:36:57.363Z,21.71
2023-04-18T08:37:57.435Z,21.74
2023-04-18T08:38:57.391Z,21.75
2023-04-18T08:39:57.426Z,21.79
2023-04-18T08:40:57.446Z,21.82
2023-04-18T08:41:57.469Z,21.75
2023-04-18T08:42:57.507Z,21.74
2023-04-18T08:43:57.493Z,21.75
2023-04-18T08:44:57.521Z,21.79
2023-04-18T08:45:57.522Z,21.79
2023-04-18T08:46:57.527Z,21.79
2023-04-18T08:47:57.599Z,21.81
2023-04-18T08:48:57.536Z,21.79
2023-04-18T08:49:57.529Z,21.83
2023-04-18T08:50:57.561Z,21.91
2023-04-18T08:51:57.549Z,22.05
2023-04-18T08:52:57.573Z,22.08
2023-04-18T08:53:57.750Z,22.04
2023-04-18T08:54:57.668Z,22.02
2023-04-18T08:55:57.579Z,21.99
2023-04-18T08:56:57.613Z,21.98
2023-04-18T08:57:57.664Z,21.96
2023-04-18T08:58:57.636Z,21.94
2023-04-18T08:59:57.716Z,21.96
2023-04-18T09:00:57.771Z,22.05
2023-04-18T09:01:57.799Z,22.12
2023-04-18T09:02:57.940Z,22.15
2023-04-18T09:03:57.792Z,22.09
2023-04-18T09:04:57.782Z,22.06
2023-04-18T09:05:57.796Z,21.99
2023-04-18T09:06:57.780Z,21.91
2023-04-18T09:07:57.820Z,21.86
2023-04-18T09:08:57.812Z,21.85
2023-04-18T09:09:57.864Z,21.83
2023-04-18T09:10:57.841Z,21.83
2023-04-18T09:11:57.852Z,21.85
2023-04-18T09:12:57.897Z,21.85
2023-04-18T09:13:57.864Z,21.89
2023-04-18T09:14:57.979Z,21.89
2023-04-18T09:15:57.880Z,21.90
2023-04-18T09:16:57.969Z,21.91
2023-04-18T09:17:58.160Z,21.96
2023-04-18T09:18:57.998Z,21.99
2023-04-18T09:19:57.960Z,22.02
2023-04-18T09:20:57.966Z,22.05
2023-04-18T09:21:57.996Z,22.06
2023-04-18T09:22:58.080Z,22.06
2023-04-18T09:23:58.016Z,22.06
2023-04-18T09:24:58.052Z,22.05
2023-04-18T09:25:58.106Z,22.05
2023-04-18T09:26:58.018Z,22.12
2023-04-18T09:27:58.032Z,22.20
2023-04-18T09:28:58.071Z,22.31
2023-04-18T09:29:58.181Z,22.45
2023-04-18T09:30:58.129Z,22.52
2023-04-18T09:31:58.043Z,22.59
2023-04-18T09:32:58.121Z,22.59
2023-04-18T09:33:58.037Z,22.60
2023-04-18T09:34:58.252Z,22.59
2023-04-18T09:35:58.060Z,22.56
2023-04-18T09:36:58.102Z,22.52
2023-04-18T09:37:58.068Z,22.54
2023-04-18T09:38:58.106Z,22.57
2023-04-18T09:39:58.192Z,22.60
2023-04-18T09:40:58.173Z,22.64
2023-04-18T09:41:58.310Z,22.67
2023-04-18T09:42:58.184Z,22.75
2023-04-18T09:43:58.179Z,22.82
2023-04-18T09:44:58.184Z,22.94
2023-04-18T09:45:58.225Z,23.01
2023-04-18T09:46:58.215Z,23.07
2023-04-18T09:47:58.267Z,23.07
2023-04-18T09:48:58.254Z,23.03
2023-04-18T09:49:58.269Z,22.94
2023-04-18T09:50:58.274Z,22.93
2023-04-18T09:51:58.307Z,22.89
2023-04-18T09:52:58.323Z,22.93
2023-04-18T09:53:58.372Z,22.91
2023-04-18T09:54:58.367Z,22.93
2023-04-18T09:55:58.347Z,22.97
2023-04-18T09:56:58.339Z,23.00
2023-04-18T09:57:58.433Z,23.01
2023-04-18T09:58:58.352Z,23.07
2023-04-18T09:59:58.369Z,23.07
2023-04-18T10:00:58.401Z,23.09
2023-04-18T10:01:58.617Z,23.09
2023-04-18T10:02:58.480Z,23.07
2023-04-18T10:03:58.527Z,23.09
2023-04-18T10:04:58.504Z,23.07
2023-04-18T10:05:58.466Z,23.09
2023-04-18T10:06:58.502Z,23.11
2023-04-18T10:07:58.563Z,23.09
2023-04-18T10:08:58.543Z,23.11
2023-04-18T10:09:58.535Z,23.11
2023-04-18T10:10:58.563Z,23.09
2023-04-18T10:11:58.552Z,23.11
2023-04-18T10:12:58.565Z,23.14
2023-04-18T10:13:58.613Z,23.21
2023-04-18T10:14:58.586Z,23.25
2023-04-18T10:15:58.663Z,23.25
2023-04-18T10:16:58.563Z,23.26
2023-04-18T10:18:04.452Z,23.21
2023-04-18T10:18:58.571Z,23.15
2023-04-18T10:19:58.609Z,23.19
2023-04-18T10:20:58.607Z,23.23
2023-04-18T10:21:58.622Z,23.32
2023-04-18T10:22:58.668Z,23.42
2023-04-18T10:23:58.677Z,23.49
2023-04-18T10:24:58.748Z,23.47
2023-04-18T10:25:58.761Z,23.37
2023-04-18T10:26:58.727Z,23.23
2023-04-18T10:27:58.741Z,23.14
2023-04-18T10:28:58.814Z,23.04
2023-04-18T10:29:58.803Z,22.99
2023-04-18T10:30:58.798Z,22.97
2023-04-18T10:31:58.854Z,22.97
2023-04-18T10:32:58.887Z,23.00
2023-04-18T10:34:04.599Z,23.00
2023-04-18T10:34:58.833Z,22.99
2023-04-18T10:35:58.846Z,22.97
2023-04-18T10:36:58.866Z,22.97
2023-04-18T10:37:58.911Z,23.03
2023-04-18T10:38:58.932Z,23.04
2023-04-18T10:39:58.961Z,23.12
2023-04-18T10:40:58.939Z,23.18
2023-04-18T10:41:58.954Z,23.21
2023-04-18T10:42:58.947Z,23.21
2023-04-18T10:43:58.966Z,23.18
2023-04-18T10:44:58.997Z,23.14
2023-04-18T10:45:59.302Z,23.06
2023-04-18T10:46:59.027Z,22.99
2023-04-18T10:47:59.051Z,22.93
2023-04-18T10:48:59.020Z,22.88
2023-04-18T10:49:59.063Z,22.78
2023-04-18T10:50:59.073Z,22.75
2023-04-18T10:51:59.094Z,22.72
2023-04-18T10:52:59.104Z,22.69
2023-04-18T10:53:59.092Z,22.70
2023-04-18T10:54:59.300Z,22.70
2023-04-18T10:55:59.130Z,22.75
2023-04-18T10:56:59.108Z,22.78
2023-04-18T10:57:59.100Z,22.74
2023-04-18T10:58:59.118Z,22.78
2023-04-18T10:59:59.106Z,22.79
2023-04-18T11:00:59.168Z,22.81
2023-04-18T11:01:59.219Z,22.81
2023-04-18T11:02:59.383Z,22.81
2023-04-18T11:03:59.301Z,22.79
2023-04-18T11:04:59.190Z,22.79
2023-04-18T11:05:59.198Z,22.79
2023-04-18T11:06:59.196Z,22.85
2023-04-18T11:07:59.214Z,22.97
2023-04-18T11:08:59.233Z,23.11
2023-04-18T11:09:59.225Z,23.21
2023-04-18T11:10:59.244Z,23.21
2023-04-18T11:11:59.277Z,23.18
2023-04-18T11:12:59.296Z,23.18
2023-04-18T11:13:59.320Z,23.18
2023-04-18T11:14:59.354Z,23.16
2023-04-18T11:15:59.345Z,23.16
2023-04-18T11:16:59.402Z,23.19
2023-04-18T11:17:59.655Z,23.32
2023-04-18T11:18:59.353Z,23.35
2023-04-18T11:19:59.399Z,23.34
2023-04-18T11:20:59.408Z,23.35
2023-04-18T11:21:59.437Z,23.42
2023-04-18T11:22:59.452Z,23.49
2023-04-18T11:23:59.470Z,23.54
2023-04-18T11:24:59.478Z,23.52
2023-04-18T11:25:59.509Z,23.53
2023-04-18T11:26:59.482Z,23.52
2023-04-18T11:27:59.508Z,23.47
2023-04-18T11:28:59.542Z,23.39
2023-04-18T11:29:59.527Z,23.38
2023-04-18T11:30:59.550Z,23.35
2023-04-18T11:31:59.573Z,23.34
2023-04-18T11:32:59.697Z,23.34
2023-04-18T11:34:00.480Z,23.34
2023-04-18T11:34:59.575Z,23.34
2023-04-18T11:35:59.603Z,23.37
2023-04-18T11:36:59.657Z,23.38
2023-04-18T11:37:59.633Z,23.39
2023-04-18T11:38:59.671Z,23.49
2023-04-18T11:39:59.714Z,23.59
2023-04-18T11:40:59.692Z,23.62
2023-04-18T11:41:59.736Z,23.67
2023-04-18T11:42:59.707Z,23.64
2023-04-18T11:43:59.731Z,23.68
2023-04-18T11:44:59.743Z,23.71
2023-04-18T11:45:59.837Z,23.62
2023-04-18T11:46:59.774Z,23.52
2023-04-18T11:47:59.814Z,23.45
2023-04-18T11:48:59.751Z,23.45
2023-04-18T11:49:59.905Z,23.53
2023-04-18T11:50:59.790Z,23.63
2023-04-18T11:51:59.824Z,23.64
2023-04-18T11:52:59.812Z,23.60
2023-04-18T11:53:59.817Z,23.59
2023-04-18T11:54:59.856Z,23.62
2023-04-18T11:55:59.890Z,23.68
2023-04-18T11:56:59.869Z,23.74
2023-04-18T11:57:59.881Z,23.79
2023-04-18T11:58:59.902Z,23.78
2023-04-18T11:59:59.939Z,23.78
2023-04-18T12:00:59.927Z,23.79
2023-04-18T12:02:12.636Z,23.87
2023-04-18T12:03:00.134Z,23.96
2023-04-18T12:04:00.232Z,24.02
2023-04-18T12:05:00.242Z,24.08
2023-04-18T12:06:00.078Z,24.16
2023-04-18T12:07:00.000Z,24.21
2023-04-18T12:07:59.965Z,24.18
2023-04-18T12:08:59.992Z,24.14
2023-04-18T12:10:00.017Z,24.00
2023-04-18T12:11:00.034Z,23.84
2023-04-18T12:12:00.053Z,23.72
2023-04-18T12:13:00.021Z,23.63
2023-04-18T12:14:00.765Z,23.59
2023-04-18T12:15:00.049Z,23.54
2023-04-18T12:16:00.106Z,23.57
2023-04-18T12:17:00.096Z,23.59
2023-04-18T12:18:00.252Z,23.69
2023-04-18T12:19:00.084Z,23.75
2023-04-18T12:20:00.157Z,23.81
2023-04-18T12:21:00.096Z,23.89
2023-04-18T12:22:00.145Z,24.00
2023-04-18T12:23:00.072Z,24.08
2023-04-18T12:24:00.094Z,24.09
2023-04-18T12:25:00.104Z,24.02
2023-04-18T12:26:00.136Z,23.99
2023-04-18T12:27:00.142Z,24.02
2023-04-18T12:28:00.137Z,24.08
2023-04-18T12:29:00.137Z,24.14
2023-04-18T12:30:00.174Z,24.21
2023-04-18T12:31:00.275Z,24.23
2023-04-18T12:32:00.315Z,24.30
2023-04-18T12:33:00.359Z,24.33
2023-04-18T12:34:00.279Z,24.31
2023-04-18T12:35:00.226Z,24.33
2023-04-18T12:36:00.284Z,24.36
2023-04-18T12:37:00.246Z,24.39
2023-04-18T12:38:00.332Z,24.45
2023-04-18T12:39:00.311Z,24.42
2023-04-18T12:40:00.290Z,23.89
2023-04-18T12:41:00.312Z,23.57
2023-04-18T12:42:00.352Z,23.37
2023-04-18T12:43:02.860Z,23.19
2023-04-18T12:44:00.325Z,23.07
2023-04-18T12:45:00.323Z,22.97
2023-04-18T12:46:00.333Z,22.88
2023-04-18T12:47:00.435Z,22.79
2023-04-18T12:48:00.520Z,22.75
2023-04-18T12:49:00.412Z,22.69
2023-04-18T12:50:00.384Z,22.64
2023-04-18T12:51:00.398Z,22.60
2023-04-18T12:52:00.487Z,22.56
2023-04-18T12:53:00.441Z,22.51
2023-04-18T12:54:00.448Z,22.48
2023-04-18T12:55:00.420Z,22.45
2023-04-18T12:56:00.452Z,22.42
2023-04-18T12:57:00.442Z,22.41
2023-04-18T12:58:00.477Z,22.39
2023-04-18T12:59:00.518Z,22.35
2023-04-18T13:00:00.541Z,22.33
2023-04-18T13:01:00.535Z,22.30